Terminal Aerodrome Forecast
Issued by NWS

Home | Current Version | Previous Version | Text Only | Print | Product List | Glossary On
Versions: 1 2 3 4 5 6 7 8 9 10 11 12 13 14 15 16 17 18 19 20 21
000
FTUS43 KABR 301725 AAA
TAFATY
TAF AMD
KATY 301725Z 3017/3118 17015KT P6SM SCT250
     FM310200 17016KT P6SM VCTS BKN090CB
      TEMPO 3103/3107 -TSRA BKN040CB
     FM310800 25008KT P6SM BKN050
     FM311600 28013KT P6SM SCT250=

USA.gov is the U.S. government's official web portal to all federal, state and local government web resources and services.